createdAt,value
2023-11-02T00:01:48.829Z,8.63
2023-11-02T00:04:51.522Z,8.64
2023-11-02T00:07:54.064Z,8.65
2023-11-02T00:10:57.998Z,8.68
2023-11-02T00:14:01.402Z,8.70
2023-11-02T00:17:04.008Z,8.72
2023-11-02T00:20:09.152Z,8.75
2023-11-02T00:23:13.661Z,8.78
2023-11-02T00:26:17.917Z,8.80
2023-11-02T00:29:20.478Z,8.80
2023-11-02T00:32:23.179Z,8.82
2023-11-02T00:35:26.366Z,8.83
2023-11-02T00:38:29.444Z,8.83
2023-11-02T00:41:33.331Z,8.86
2023-11-02T00:44:35.873Z,8.90
2023-11-02T00:47:38.508Z,8.92
2023-11-02T00:51:20.663Z,8.93
2023-11-02T00:54:56.193Z,8.95
2023-11-02T00:58:00.115Z,8.95
2023-11-02T01:01:06.457Z,8.98
2023-11-02T01:04:40.081Z,9.00
2023-11-02T01:07:42.762Z,9.01
2023-11-02T01:10:45.620Z,9.04
2023-11-02T01:13:49.574Z,9.04
2023-11-02T01:16:52.197Z,9.05
2023-11-02T01:19:56.740Z,9.08
2023-11-02T01:23:00.460Z,9.08
2023-11-02T01:26:03.997Z,9.10
2023-11-02T01:29:07.909Z,9.12
2023-11-02T01:32:10.478Z,9.13
2023-11-02T01:35:37.972Z,9.16
2023-11-02T01:38:40.696Z,9.17
2023-11-02T01:41:45.387Z,9.21
2023-11-02T01:44:54.414Z,9.21
2023-11-02T01:48:02.514Z,9.19
2023-11-02T01:51:06.359Z,9.19
2023-11-02T01:54:11.287Z,9.18
2023-11-02T01:57:16.252Z,9.17
2023-11-02T02:00:22.863Z,9.15
2023-11-02T02:03:28.742Z,9.15
2023-11-02T02:06:36.944Z,9.14
2023-11-02T02:09:51.388Z,9.14
2023-11-02T02:13:11.112Z,9.14
2023-11-02T02:16:17.492Z,9.13
2023-11-02T02:19:35.228Z,9.14
2023-11-02T02:22:43.943Z,9.12
2023-11-02T02:25:51.708Z,9.13
2023-11-02T02:29:15.776Z,9.13
2023-11-02T02:32:34.306Z,9.16
2023-11-02T02:35:39.981Z,9.14
2023-11-02T02:38:45.664Z,9.16
2023-11-02T02:41:48.245Z,9.15
2023-11-02T02:44:50.846Z,9.15
2023-11-02T02:47:53.497Z,9.16
2023-11-02T02:50:58.851Z,9.19
2023-11-02T02:54:03.868Z,9.17
2023-11-02T02:57:06.956Z,9.19
2023-11-02T03:00:10.764Z,9.20
2023-11-02T03:03:13.939Z,9.23
2023-11-02T03:06:18.425Z,9.24
2023-11-02T03:09:22.316Z,9.25
2023-11-02T03:12:26.278Z,9.29
2023-11-02T03:15:31.101Z,9.34
2023-11-02T03:18:34.283Z,9.33
2023-11-02T03:21:38.258Z,9.35
2023-11-02T03:24:46.338Z,9.35
2023-11-02T03:27:59.435Z,9.36
2023-11-02T03:31:09.272Z,9.38
2023-11-02T03:34:15.989Z,9.40
2023-11-02T03:37:23.080Z,9.42
2023-11-02T03:40:31.885Z,9.44
2023-11-02T03:43:37.424Z,9.47
2023-11-02T03:46:43.990Z,9.49
2023-11-02T03:49:49.747Z,9.49
2023-11-02T03:53:02.131Z,9.51
2023-11-02T03:56:13.030Z,9.53
2023-11-02T03:59:18.137Z,9.56
2023-11-02T04:02:26.093Z,9.62
2023-11-02T04:05:29.503Z,9.63
2023-11-02T04:08:34.139Z,9.67
2023-11-02T04:11:39.335Z,9.68
2023-11-02T04:14:41.905Z,9.66
2023-11-02T04:17:44.526Z,9.66
2023-11-02T04:20:52.674Z,9.67
2023-11-02T04:23:56.784Z,9.70
2023-11-02T04:26:59.533Z,9.74
2023-11-02T04:30:02.215Z,9.73
2023-11-02T04:33:05.219Z,9.73
2023-11-02T04:36:08.579Z,9.75
2023-11-02T04:39:12.572Z,9.77
2023-11-02T04:42:16.196Z,9.78
2023-11-02T04:45:18.830Z,9.81
2023-11-02T04:48:21.984Z,9.84
2023-11-02T04:51:24.594Z,9.84
2023-11-02T04:54:28.778Z,9.81
2023-11-02T04:57:31.439Z,9.81
2023-11-02T05:00:34.117Z,9.80
2023-11-02T05:03:36.833Z,9.79
2023-11-02T05:06:40.013Z,9.81
2023-11-02T05:09:43.987Z,9.83
2023-11-02T05:12:46.706Z,9.86
2023-11-02T05:15:56.105Z,9.87
2023-11-02T05:18:59.571Z,9.88
2023-11-02T05:22:02.604Z,9.88
2023-11-02T05:25:08.957Z,9.86
2023-11-02T05:28:11.669Z,9.81
2023-11-02T05:31:14.235Z,9.78
2023-11-02T05:34:17.046Z,9.75
2023-11-02T05:37:19.622Z,9.74
2023-11-02T05:40:23.581Z,9.68
2023-11-02T05:43:26.153Z,9.61
2023-11-02T05:46:29.049Z,9.59
2023-11-02T05:49:31.732Z,9.57
2023-11-02T05:52:35.181Z,9.48
2023-11-02T05:55:39.145Z,9.37
2023-11-02T05:58:41.857Z,9.29
2023-11-02T06:01:45.817Z,9.22
2023-11-02T06:04:48.497Z,9.19
2023-11-02T06:07:51.121Z,9.20
2023-11-02T06:10:55.031Z,9.17
2023-11-02T06:13:59.133Z,9.16
2023-11-02T06:17:02.106Z,9.17
2023-11-02T06:20:07.517Z,9.18
2023-11-02T06:23:10.155Z,9.22
2023-11-02T06:26:14.865Z,9.26
2023-11-02T06:29:17.479Z,9.28
2023-11-02T06:32:20.093Z,9.30
2023-11-02T06:35:22.686Z,9.30
2023-11-02T06:38:25.362Z,9.28
2023-11-02T06:41:29.347Z,9.26
2023-11-02T06:44:31.963Z,9.26
2023-11-02T06:47:34.587Z,9.23
2023-11-02T06:50:37.229Z,9.21
2023-11-02T06:53:39.872Z,9.25
2023-11-02T06:56:43.926Z,9.29
2023-11-02T06:59:46.514Z,9.32
2023-11-02T07:02:49.101Z,9.33
2023-11-02T07:05:51.659Z,9.37
2023-11-02T07:08:54.280Z,9.41
2023-11-02T07:11:58.270Z,9.45
2023-11-02T07:15:00.844Z,9.48
2023-11-02T07:18:03.613Z,9.53
2023-11-02T07:21:07.416Z,9.55
2023-11-02T07:24:10.293Z,9.57
2023-11-02T07:27:14.220Z,9.61
2023-11-02T07:30:16.894Z,9.65
2023-11-02T07:33:19.621Z,9.66
2023-11-02T07:36:25.988Z,9.65
2023-11-02T07:39:30.081Z,9.62
2023-11-02T07:42:34.090Z,9.59
2023-11-02T07:45:36.991Z,9.57
2023-11-02T07:48:41.160Z,9.57
2023-11-02T07:51:44.024Z,9.55
2023-11-02T07:54:47.028Z,9.53
2023-11-02T07:57:51.014Z,9.53
2023-11-02T08:00:54.399Z,9.57
2023-11-02T08:03:57.081Z,9.61
2023-11-02T08:06:59.717Z,9.65
2023-11-02T08:10:02.895Z,9.70
2023-11-02T08:13:06.906Z,9.74
2023-11-02T08:16:10.787Z,9.81
2023-11-02T08:19:14.399Z,9.88
2023-11-02T08:22:17.000Z,9.94
2023-11-02T08:25:19.634Z,10.00
2023-11-02T08:28:23.563Z,10.04
2023-11-02T08:31:26.290Z,10.13
2023-11-02T08:34:28.914Z,10.26
2023-11-02T08:37:31.632Z,10.35
2023-11-02T08:40:35.602Z,10.40
2023-11-02T08:43:39.601Z,10.42
2023-11-02T08:46:42.312Z,10.41
2023-11-02T08:49:45.610Z,10.41
2023-11-02T08:52:48.567Z,10.37
2023-11-02T08:55:51.239Z,10.37
2023-11-02T08:58:55.550Z,10.36
2023-11-02T09:01:59.746Z,10.36
2023-11-02T09:05:02.639Z,10.35
2023-11-02T09:08:05.656Z,10.26
2023-11-02T09:11:08.281Z,10.18
2023-11-02T09:14:12.662Z,10.07
2023-11-02T09:17:15.305Z,10.00
2023-11-02T09:20:17.929Z,9.98
2023-11-02T09:23:20.609Z,9.98
2023-11-02T09:26:23.234Z,9.98
2023-11-02T09:29:27.956Z,9.97
2023-11-02T09:32:32.148Z,9.96
2023-11-02T09:35:35.370Z,9.96
2023-11-02T09:38:38.021Z,9.95
2023-11-02T09:41:40.618Z,9.94
2023-11-02T09:44:45.000Z,9.93
2023-11-02T09:47:47.720Z,9.94
2023-11-02T09:50:50.409Z,9.94
2023-11-02T09:53:53.247Z,9.95
2023-11-02T09:56:56.104Z,9.91
2023-11-02T10:00:00.196Z,9.86
2023-11-02T10:03:04.156Z,9.87
2023-11-02T10:06:08.826Z,9.88
2023-11-02T10:09:12.305Z,9.95
2023-11-02T10:12:15.001Z,10.08
2023-11-02T10:15:19.105Z,10.19
2023-11-02T10:18:22.671Z,10.21
2023-11-02T10:21:25.493Z,10.17
2023-11-02T10:24:31.698Z,10.05
2023-11-02T10:27:36.934Z,9.88
2023-11-02T10:30:40.969Z,9.81
2023-11-02T10:33:43.658Z,9.87
2023-11-02T10:36:46.274Z,9.94
2023-11-02T10:39:49.317Z,9.97
2023-11-02T10:42:52.355Z,9.97
2023-11-02T10:45:56.707Z,10.00
2023-11-02T10:49:00.201Z,10.02
2023-11-02T10:52:03.498Z,10.01
2023-11-02T10:55:10.637Z,9.96
2023-11-02T10:58:13.921Z,9.92
2023-11-02T11:01:18.150Z,9.95
2023-11-02T11:04:20.802Z,10.02
2023-11-02T11:07:23.563Z,10.10
2023-11-02T11:10:26.215Z,10.16
2023-11-02T11:13:28.791Z,10.21
2023-11-02T11:16:32.867Z,10.24
2023-11-02T11:19:35.897Z,10.28
2023-11-02T11:22:39.022Z,10.29
2023-11-02T11:25:57.723Z,10.31
2023-11-02T11:29:00.317Z,10.30
2023-11-02T11:32:04.995Z,10.32
2023-11-02T11:35:14.006Z,10.30
2023-11-02T11:38:37.253Z,10.27
2023-11-02T11:41:45.093Z,10.26
2023-11-02T11:44:47.706Z,10.27
2023-11-02T11:47:51.663Z,10.29
2023-11-02T11:50:55.646Z,10.31
2023-11-02T11:54:11.915Z,10.27
2023-11-02T11:57:47.236Z,10.20
2023-11-02T12:01:15.902Z,10.09
2023-11-02T12:04:49.615Z,10.04
2023-11-02T12:07:52.205Z,10.01
2023-11-02T12:10:56.571Z,9.99
2023-11-02T12:14:01.458Z,9.97
2023-11-02T12:17:05.719Z,9.97
2023-11-02T12:20:11.587Z,9.96
2023-11-02T12:23:14.760Z,9.94
2023-11-02T12:26:20.633Z,9.89
2023-11-02T12:29:24.989Z,9.82
2023-11-02T12:32:27.951Z,9.68
2023-11-02T12:35:31.913Z,9.50
2023-11-02T12:38:44.735Z,9.35
2023-11-02T12:41:48.567Z,9.17
2023-11-02T12:44:52.237Z,9.00
2023-11-02T12:47:54.875Z,8.87
2023-11-02T12:50:58.972Z,8.79
2023-11-02T12:54:09.678Z,8.69
2023-11-02T12:57:12.505Z,8.63
2023-11-02T13:00:16.052Z,8.61
2023-11-02T13:03:21.085Z,8.57
2023-11-02T13:06:28.305Z,8.51
2023-11-02T13:09:30.975Z,8.47
2023-11-02T13:12:35.468Z,8.45
2023-11-02T13:15:38.126Z,8.45
2023-11-02T13:18:49.088Z,8.46
2023-11-02T13:21:53.208Z,8.43
2023-11-02T13:24:58.494Z,8.39
2023-11-02T13:28:03.186Z,8.39
2023-11-02T13:31:10.002Z,8.41
2023-11-02T13:34:12.667Z,8.44
2023-11-02T13:37:16.665Z,8.46
2023-11-02T13:40:26.501Z,8.44
2023-11-02T13:43:29.545Z,8.37
2023-11-02T13:46:33.367Z,8.32
2023-11-02T13:49:37.872Z,8.29
2023-11-02T13:52:42.771Z,8.30
2023-11-02T13:55:45.747Z,8.32
2023-11-02T13:58:48.334Z,8.39
2023-11-02T14:01:50.952Z,8.46
2023-11-02T14:04:53.746Z,8.51
2023-11-02T14:07:57.837Z,8.57
2023-11-02T14:11:01.722Z,8.60
2023-11-02T14:14:06.900Z,8.67
2023-11-02T14:17:10.023Z,8.76
2023-11-02T14:20:13.338Z,8.84
2023-11-02T14:23:18.189Z,8.90
2023-11-02T14:26:21.553Z,8.96
2023-11-02T14:29:24.215Z,9.01
2023-11-02T14:32:26.807Z,9.03
2023-11-02T14:35:29.418Z,9.06
2023-11-02T14:38:33.656Z,9.10
2023-11-02T14:41:36.305Z,9.12
2023-11-02T14:44:39.245Z,9.12
2023-11-02T14:47:42.094Z,9.13
2023-11-02T14:50:45.008Z,9.12
2023-11-02T14:53:48.977Z,9.15
2023-11-02T14:56:51.594Z,9.17
2023-11-02T14:59:54.176Z,9.18
2023-11-02T15:02:57.452Z,9.18
2023-11-02T15:06:00.151Z,9.18
2023-11-02T15:09:09.758Z,9.18
2023-11-02T15:12:13.604Z,9.16
2023-11-02T15:15:16.373Z,9.13
2023-11-02T15:18:19.158Z,9.11
2023-11-02T15:21:21.827Z,9.07
2023-11-02T15:24:25.803Z,9.06
2023-11-02T15:27:30.515Z,9.06
2023-11-02T15:30:33.285Z,9.04
2023-11-02T15:33:36.403Z,9.02
2023-11-02T15:36:39.280Z,9.00
2023-11-02T15:39:45.337Z,8.97
2023-11-02T15:42:48.041Z,8.93
2023-11-02T15:45:50.959Z,8.90
2023-11-02T15:48:53.727Z,8.86
2023-11-02T15:51:56.420Z,8.81
2023-11-02T15:55:02.421Z,8.78
2023-11-02T15:58:05.429Z,8.78
2023-11-02T16:01:08.993Z,8.77
2023-11-02T16:04:11.629Z,8.75
2023-11-02T16:07:14.278Z,8.74
2023-11-02T16:10:20.554Z,8.73
2023-11-02T16:13:23.177Z,8.71
2023-11-02T16:16:25.749Z,8.71
2023-11-02T16:19:30.225Z,8.73
2023-11-02T16:22:33.038Z,8.75
2023-11-02T16:25:39.965Z,8.76
2023-11-02T16:28:42.642Z,8.77
2023-11-02T16:31:45.257Z,8.75
2023-11-02T16:34:58.204Z,8.72
2023-11-02T16:38:06.130Z,8.73
2023-11-02T16:41:10.132Z,8.72
2023-11-02T16:44:13.441Z,8.70
2023-11-02T16:47:16.383Z,8.68
2023-11-02T16:50:20.663Z,8.64
2023-11-02T16:53:23.968Z,8.60
2023-11-02T16:56:27.888Z,8.57
2023-11-02T16:59:30.496Z,8.53
2023-11-02T17:02:33.146Z,8.50
2023-11-02T17:05:35.801Z,8.46
2023-11-02T17:08:38.395Z,8.45
2023-11-02T17:11:42.315Z,8.43
2023-11-02T17:14:44.918Z,8.43
2023-11-02T17:17:47.570Z,8.49
2023-11-02T17:20:52.857Z,8.56
2023-11-02T17:23:55.520Z,8.64
2023-11-02T17:26:59.651Z,8.70
2023-11-02T17:30:02.312Z,8.75
2023-11-02T17:33:05.898Z,8.79
2023-11-02T17:36:09.064Z,8.81
2023-11-02T17:39:13.602Z,8.83
2023-11-02T17:42:19.125Z,8.86
2023-11-02T17:45:25.040Z,8.87
2023-11-02T17:48:28.114Z,8.88
2023-11-02T17:51:30.881Z,8.88
2023-11-02T17:54:34.459Z,8.86
2023-11-02T17:57:38.493Z,8.87
2023-11-02T18:00:41.595Z,8.86
2023-11-02T18:03:44.240Z,8.85
2023-11-02T18:06:46.897Z,8.82
2023-11-02T18:09:49.817Z,8.80
2023-11-02T18:12:53.783Z,8.78
2023-11-02T18:15:56.440Z,8.72
2023-11-02T18:19:00.276Z,8.66
2023-11-02T18:22:03.012Z,8.62
2023-11-02T18:25:06.232Z,8.61
2023-11-02T18:28:10.209Z,8.63
2023-11-02T18:31:12.916Z,8.64
2023-11-02T18:34:15.602Z,8.65
2023-11-02T18:37:18.480Z,8.64
2023-11-02T18:40:21.125Z,8.63
2023-11-02T18:43:26.573Z,8.64
2023-11-02T18:46:30.522Z,8.64
2023-11-02T18:49:36.261Z,8.59
2023-11-02T18:52:38.934Z,8.48
2023-11-02T18:55:43.086Z,8.43
2023-11-02T18:58:47.155Z,8.39
2023-11-02T19:01:52.954Z,8.36
2023-11-02T19:04:55.566Z,8.33
2023-11-02T19:07:58.142Z,8.29
2023-11-02T19:11:05.029Z,8.24
2023-11-02T19:14:10.188Z,8.16
2023-11-02T19:17:12.775Z,8.09
2023-11-02T19:20:15.425Z,8.05
2023-11-02T19:23:19.009Z,8.00
2023-11-02T19:26:22.872Z,7.96
2023-11-02T19:29:26.839Z,7.93
2023-11-02T19:32:31.393Z,7.90
2023-11-02T19:35:34.014Z,7.87
2023-11-02T19:38:36.624Z,7.80
2023-11-02T19:41:40.431Z,7.78
2023-11-02T19:44:44.411Z,7.74
2023-11-02T19:47:47.546Z,7.69
2023-11-02T19:50:52.752Z,7.65
2023-11-02T19:53:56.911Z,7.61
2023-11-02T19:56:59.540Z,7.57
2023-11-02T20:00:03.899Z,7.53
2023-11-02T20:03:06.697Z,7.44
2023-11-02T20:06:11.412Z,7.34
2023-11-02T20:09:14.905Z,7.27
2023-11-02T20:12:17.550Z,7.21
2023-11-02T20:15:21.584Z,7.17
2023-11-02T20:18:24.241Z,7.15
2023-11-02T20:21:26.840Z,7.13
2023-11-02T20:24:29.505Z,7.12
2023-11-02T20:27:32.146Z,7.08
2023-11-02T20:30:36.185Z,7.03
2023-11-02T20:33:38.860Z,7.03
2023-11-02T20:36:41.609Z,7.04
2023-11-02T20:39:44.227Z,7.04
2023-11-02T20:42:46.849Z,7.01
2023-11-02T20:45:51.054Z,7.02
2023-11-02T20:48:54.242Z,7.02
2023-11-02T20:51:57.131Z,7.05
2023-11-02T20:54:59.866Z,7.02
2023-11-02T20:58:02.493Z,7.03
2023-11-02T21:01:06.947Z,7.02
2023-11-02T21:04:09.578Z,7.04
2023-11-02T21:07:12.279Z,7.05
2023-11-02T21:10:15.377Z,7.08
2023-11-02T21:13:19.213Z,7.10
2023-11-02T21:16:23.658Z,7.14
2023-11-02T21:19:26.342Z,7.18
2023-11-02T21:22:28.977Z,7.21
2023-11-02T21:25:31.643Z,7.22
2023-11-02T21:28:34.213Z,7.24
2023-11-02T21:31:38.205Z,7.23
2023-11-02T21:34:42.865Z,7.25
2023-11-02T21:37:51.504Z,7.25
2023-11-02T21:40:54.433Z,7.24
2023-11-02T21:43:57.132Z,7.21
2023-11-02T21:47:01.094Z,7.20
2023-11-02T21:50:04.558Z,7.17
2023-11-02T21:53:07.161Z,7.19
2023-11-02T21:56:09.897Z,7.19
2023-11-02T21:59:13.175Z,7.18
2023-11-02T22:02:17.782Z,7.21
2023-11-02T22:05:20.432Z,7.19
2023-11-02T22:08:23.943Z,7.20
2023-11-02T22:11:26.666Z,7.21
2023-11-02T22:14:29.269Z,7.24
2023-11-02T22:17:33.238Z,7.27
2023-11-02T22:20:35.868Z,7.28
2023-11-02T22:23:38.448Z,7.30
2023-11-02T22:26:41.116Z,7.33
2023-11-02T22:29:43.692Z,7.34
2023-11-02T22:32:47.649Z,7.35
2023-11-02T22:35:50.223Z,7.36
2023-11-02T22:38:53.114Z,7.37
2023-11-02T22:41:55.841Z,7.36
2023-11-02T22:44:58.477Z,7.35
2023-11-02T22:48:02.879Z,7.35
2023-11-02T22:51:06.334Z,7.35
2023-11-02T22:54:08.990Z,7.36
2023-11-02T22:57:11.561Z,7.36
2023-11-02T23:00:24.935Z,7.34
2023-11-02T23:03:29.585Z,7.33
2023-11-02T23:06:32.251Z,7.32
2023-11-02T23:09:35.086Z,7.27
2023-11-02T23:12:37.755Z,7.25
2023-11-02T23:15:40.560Z,7.23
2023-11-02T23:18:45.384Z,7.20
2023-11-02T23:21:48.284Z,7.19
2023-11-02T23:24:50.964Z,7.19
2023-11-02T23:27:54.210Z,7.16
2023-11-02T23:30:56.860Z,7.14
2023-11-02T23:34:00.938Z,7.13
2023-11-02T23:37:03.799Z,7.12
2023-11-02T23:40:07.845Z,7.12
2023-11-02T23:43:10.975Z,7.13
2023-11-02T23:46:15.272Z,7.12
2023-11-02T23:49:19.268Z,7.12
2023-11-02T23:52:21.873Z,7.10
2023-11-02T23:55:25.328Z,7.10
2023-11-02T23:58:27.974Z,7.11
